Time;durP1;ratioP1;P1;durP2;ratioP2;P2;SDS_P1;SDS_P2;PMS_P1;PMS_P2;Temp;Humidity;BMP_temperature;BMP_pressure;BME280_temperature;BME280_humidity;BME280_pressure;Samples;Min_cycle;Max_cycle;Signal;HPM_P1;HPM_P2
2023/05/30 00:10:57;;;;;;;;;;;;;;;21.85;50.66;100251.72;39907988;29;19957;-75
2023/05/30 00:30:57;;;;;;;;;;;;;;;21.72;50.27;100259.78;39892968;29;19929;-74
2023/05/30 00:50:58;;;;;;;;;;;;;;;21.61;49.87;100256.38;39917672;29;19930;-76
2023/05/30 01:11:07;;;;;;;;;;;;;;;21.51;49.77;100259.69;39895782;29;19933;-74
2023/05/30 01:31:08;;;;;;;;;;;;;;;21.47;48.86;100253.00;39888078;29;19932;-75
2023/05/30 01:51:12;;;;;;;;;;;;;;;21.25;49.09;100248.59;39919193;29;19925;-75
2023/05/30 02:11:16;;;;;;;;;;;;;;;21.17;49.04;100243.97;39919172;29;19928;-75
2023/05/30 02:31:17;;;;;;;;;;;;;;;21.05;49.74;100239.69;39921509;29;19924;-74
2023/05/30 02:51:17;;;;;;;;;;;;;;;20.90;49.74;100234.66;39915006;29;19929;-74
2023/05/30 03:11:18;;;;;;;;;;;;;;;20.87;49.78;100248.09;39898814;29;21945;-76
2023/05/30 03:31:18;;;;;;;;;;;;;;;20.91;49.72;100261.81;39910704;29;19936;-74
2023/05/30 03:51:19;;;;;;;;;;;;;;;20.78;49.94;100283.81;39870145;29;19932;-74
2023/05/30 04:11:19;;;;;;;;;;;;;;;20.89;50.08;100290.06;39838035;29;19985;-77
2023/05/30 04:31:19;;;;;;;;;;;;;;;21.37;49.79;100297.69;39850380;29;19928;-80
2023/05/30 04:51:21;;;;;;;;;;;;;;;21.74;50.15;100307.94;39841293;29;19933;-78
2023/05/30 05:11:22;;;;;;;;;;;;;;;22.03;49.91;100312.63;39836949;29;19939;-77
2023/05/30 05:31:22;;;;;;;;;;;;;;;22.21;48.89;100326.06;39914212;29;19928;-75
2023/05/30 05:51:23;;;;;;;;;;;;;;;22.44;48.29;100328.63;39822739;29;19976;-75
2023/05/30 06:11:23;;;;;;;;;;;;;;;22.63;48.18;100350.84;39841017;29;19928;-72
2023/05/30 06:31:23;;;;;;;;;;;;;;;22.78;48.28;100348.72;39883145;29;20379;-76
2023/05/30 06:51:24;;;;;;;;;;;;;;;22.89;47.98;100367.13;39888898;29;19932;-74
2023/05/30 07:11:25;;;;;;;;;;;;;;;22.98;47.84;100361.03;39888059;29;19933;-74
2023/05/30 07:31:26;;;;;;;;;;;;;;;23.08;47.81;100363.72;39900080;29;19979;-76
2023/05/30 07:51:26;;;;;;;;;;;;;;;23.18;47.65;100377.03;39893235;29;19934;-75
2023/05/30 08:11:26;;;;;;;;;;;;;;;23.25;47.54;100385.25;39911669;29;20020;-71
2023/05/30 08:31:27;;;;;;;;;;;;;;;23.33;47.54;100373.03;39923283;29;20012;-72
2023/05/30 08:51:29;;;;;;;;;;;;;;;23.43;47.35;100381.00;39931104;29;20600;-73
2023/05/30 09:11:29;;;;;;;;;;;;;;;23.52;47.27;100399.69;39928585;29;19932;-73
2023/05/30 09:31:30;;;;;;;;;;;;;;;23.60;46.48;100411.25;39908776;29;19955;-73
2023/05/30 09:51:31;;;;;;;;;;;;;;;23.63;46.44;100428.63;39926044;29;19929;-73
2023/05/30 10:11:31;;;;;;;;;;;;;;;23.66;46.66;100441.59;39927740;29;20003;-72
2023/05/30 10:31:32;;;;;;;;;;;;;;;23.66;45.82;100421.28;39922137;29;20069;-72
2023/05/30 10:51:53;;;;;;;;;;;;;;;23.81;45.34;100415.63;39949450;29;19968;-72
2023/05/30 11:11:54;;;;;;;;;;;;;;;23.87;43.61;100399.22;39920125;29;20048;-71
2023/05/30 11:31:55;;;;;;;;;;;;;;;23.87;44.27;100387.81;39923856;29;20051;-70
2023/05/30 11:51:55;;;;;;;;;;;;;;;23.97;44.49;100372.81;39926485;29;20124;-73
2023/05/30 12:11:57;;;;;;;;;;;;;;;23.96;44.80;100364.03;39910521;29;19932;-74
2023/05/30 12:31:57;;;;;;;;;;;;;;;24.02;45.09;100338.84;39925212;29;19928;-74
2023/05/30 12:51:58;;;;;;;;;;;;;;;24.17;44.02;100326.06;39921952;29;19940;-73
2023/05/30 13:11:58;;;;;;;;;;;;;;;24.40;44.86;100333.66;39891148;29;19928;-72
2023/05/30 13:31:58;;;;;;;;;;;;;;;24.62;44.42;100333.34;39900690;29;20380;-73
2023/05/30 13:52:00;;;;;;;;;;;;;;;24.78;44.53;100326.66;39887923;29;19956;-72
2023/05/30 14:12:01;;;;;;;;;;;;;;;24.87;43.21;100299.31;39893578;29;19924;-73
2023/05/30 14:32:03;;;;;;;;;;;;;;;24.88;43.49;100359.25;39860688;29;19933;-72
2023/05/30 14:52:09;;;;;;;;;;;;;;;24.30;37.44;100394.53;39873138;29;20023;-73
2023/05/30 15:12:10;;;;;;;;;;;;;;;24.17;38.57;100433.66;39866913;29;20145;-72
2023/05/30 15:32:10;;;;;;;;;;;;;;;23.96;39.93;100419.59;39883649;29;19932;-71
2023/05/30 15:52:14;;;;;;;;;;;;;;;23.80;41.15;100392.78;39858910;29;21694;-73
2023/05/30 16:12:15;;;;;;;;;;;;;;;23.43;41.49;100354.56;39856965;29;20024;-69
2023/05/30 16:32:18;;;;;;;;;;;;;;;23.23;41.88;100334.34;39861123;29;21654;-74
2023/05/30 16:52:22;;;;;;;;;;;;;;;23.22;43.34;100336.16;39841992;29;23346;-77
2023/05/30 17:12:23;;;;;;;;;;;;;;;23.23;43.06;100352.84;39839420;29;20015;-75
2023/05/30 17:32:23;;;;;;;;;;;;;;;23.17;43.54;100378.81;39861933;29;19913;-75
2023/05/30 17:52:23;;;;;;;;;;;;;;;23.16;43.74;100403.56;39855629;29;19981;-73
2023/05/30 18:12:24;;;;;;;;;;;;;;;23.17;43.80;100415.78;39848851;29;20003;-73
2023/05/30 18:32:25;;;;;;;;;;;;;;;23.11;44.25;100433.97;39907674;29;20024;-74
2023/05/30 18:52:26;;;;;;;;;;;;;;;23.17;45.54;100454.59;39889326;29;19933;-72
2023/05/30 19:12:26;;;;;;;;;;;;;;;23.05;47.07;100485.47;39862532;29;19921;-75
2023/05/30 19:32:26;;;;;;;;;;;;;;;22.92;47.26;100500.69;39860061;29;20074;-70
2023/05/30 19:52:27;;;;;;;;;;;;;;;22.84;47.68;100507.44;39874191;29;19925;-70
2023/05/30 20:12:27;;;;;;;;;;;;;;;22.74;48.20;100501.25;39910210;29;19936;-70
2023/05/30 20:32:27;;;;;;;;;;;;;;;22.60;49.08;100515.56;39887851;29;19929;-69
2023/05/30 20:52:28;;;;;;;;;;;;;;;22.59;49.27;100526.25;39922280;29;19928;-70
2023/05/30 21:12:28;;;;;;;;;;;;;;;22.63;49.71;100536.44;39883793;29;20020;-71
2023/05/30 21:32:28;;;;;;;;;;;;;;;22.56;49.66;100537.91;39907529;29;20454;-70
2023/05/30 21:52:29;;;;;;;;;;;;;;;22.36;49.49;100532.41;39886497;29;20292;-71
2023/05/30 22:12:29;;;;;;;;;;;;;;;22.26;49.70;100544.63;39937193;29;19924;-70
2023/05/30 22:32:29;;;;;;;;;;;;;;;22.16;49.36;100539.25;39898267;29;19976;-69
2023/05/30 22:52:30;;;;;;;;;;;;;;;22.11;49.10;100532.69;39920984;29;19928;-71
2023/05/30 23:12:30;;;;;;;;;;;;;;;22.04;48.85;100529.66;39923728;29;20452;-70
2023/05/30 23:32:31;;;;;;;;;;;;;;;21.97;48.63;100531.97;39924388;29;19987;-71
2023/05/30 23:52:32;;;;;;;;;;;;;;;21.90;47.97;100528.13;39899800;29;20015;-71
